createdAt,value
2018-08-16T00:00:16.418Z,18.10
2018-08-16T00:02:44.802Z,18.10
2018-08-16T00:05:12.582Z,18.00
2018-08-16T00:07:40.338Z,18.00
2018-08-16T00:10:11.062Z,18.00
2018-08-16T00:12:38.810Z,18.00
2018-08-16T00:15:07.238Z,18.10
2018-08-16T00:17:34.966Z,18.00
2018-08-16T00:20:02.787Z,17.90
2018-08-16T00:22:30.534Z,17.90
2018-08-16T00:24:58.293Z,17.80
2018-08-16T00:27:26.017Z,17.80
2018-08-16T00:29:53.766Z,17.90
2018-08-16T00:32:21.485Z,17.90
2018-08-16T00:34:49.218Z,17.80
2018-08-16T00:37:17.002Z,17.80
2018-08-16T00:39:44.721Z,17.70
2018-08-16T00:42:12.560Z,17.60
2018-08-16T00:44:40.438Z,17.60
2018-08-16T00:47:08.178Z,17.60
2018-08-16T00:49:35.918Z,17.50
2018-08-16T00:52:03.853Z,17.40
2018-08-16T00:54:31.596Z,17.40
2018-08-16T00:56:59.330Z,17.20
2018-08-16T00:59:27.096Z,17.30
2018-08-16T01:01:54.822Z,17.20
2018-08-16T01:04:22.569Z,17.20
2018-08-16T01:06:50.294Z,17.20
2018-08-16T01:09:18.052Z,17.20
2018-08-16T01:11:45.774Z,17.10
2018-08-16T01:14:13.534Z,17.10
2018-08-16T01:16:41.285Z,16.90
2018-08-16T01:19:09.050Z,16.90
2018-08-16T01:21:36.794Z,16.80
2018-08-16T01:24:04.606Z,16.80
2018-08-16T01:26:32.358Z,16.80
2018-08-16T01:29:00.086Z,16.70
2018-08-16T01:31:27.813Z,16.70
2018-08-16T01:33:55.549Z,16.60
2018-08-16T01:36:23.918Z,16.50
2018-08-16T01:38:51.694Z,16.50
2018-08-16T01:41:19.474Z,16.40
2018-08-16T01:43:47.262Z,16.40
2018-08-16T01:46:15.006Z,16.20
2018-08-16T01:48:42.754Z,16.30
2018-08-16T01:51:10.502Z,16.30
2018-08-16T01:53:38.219Z,16.30
2018-08-16T01:56:06.130Z,16.30
2018-08-16T01:58:33.869Z,16.20
2018-08-16T02:01:01.638Z,16.20
2018-08-16T02:03:29.365Z,16.10
2018-08-16T02:05:57.111Z,16.10
2018-08-16T02:08:24.904Z,16.10
2018-08-16T02:10:52.761Z,16.10
2018-08-16T02:13:20.505Z,16.10
2018-08-16T02:15:48.232Z,16.00
2018-08-16T02:18:15.998Z,16.00
2018-08-16T02:20:43.717Z,16.00
2018-08-16T02:23:11.478Z,15.90
2018-08-16T02:25:39.197Z,15.90
2018-08-16T02:28:06.982Z,15.80
2018-08-16T02:30:34.731Z,15.80
2018-08-16T02:33:02.463Z,15.70
2018-08-16T02:35:30.233Z,15.80
2018-08-16T02:37:57.949Z,15.70
2018-08-16T02:40:25.754Z,15.70
2018-08-16T02:42:53.829Z,15.70
2018-08-16T02:45:21.581Z,15.60
2018-08-16T02:47:49.293Z,15.70
2018-08-16T02:50:17.038Z,15.70
2018-08-16T02:52:44.870Z,15.60
2018-08-16T02:55:12.629Z,15.60
2018-08-16T02:57:40.362Z,15.50
2018-08-16T03:00:09.098Z,15.50
2018-08-16T03:02:36.865Z,15.50
2018-08-16T03:05:05.153Z,15.50
2018-08-16T03:07:32.889Z,15.40
2018-08-16T03:10:00.606Z,15.30
2018-08-16T03:12:28.358Z,15.30
2018-08-16T03:14:56.102Z,15.30
2018-08-16T03:17:23.881Z,15.30
2018-08-16T03:19:51.621Z,15.30
2018-08-16T03:22:19.362Z,15.20
2018-08-16T03:24:47.106Z,15.20
2018-08-16T03:27:14.833Z,15.30
2018-08-16T03:29:42.582Z,15.20
2018-08-16T03:32:10.306Z,15.20
2018-08-16T03:34:38.025Z,15.20
2018-08-16T03:37:05.778Z,15.30
2018-08-16T03:39:33.507Z,15.20
2018-08-16T03:42:01.527Z,15.20
2018-08-16T03:44:29.950Z,15.20
2018-08-16T03:46:57.743Z,15.10
2018-08-16T03:49:25.472Z,15.10
2018-08-16T03:51:53.198Z,15.10
2018-08-16T03:54:20.954Z,15.10
2018-08-16T03:56:48.648Z,15.10
2018-08-16T03:59:16.365Z,15.00
2018-08-16T04:01:44.062Z,15.00
2018-08-16T04:04:11.792Z,15.00
2018-08-16T04:06:39.503Z,15.10
2018-08-16T04:09:07.906Z,15.00
2018-08-16T04:11:36.817Z,15.00
2018-08-16T04:14:04.658Z,15.10
2018-08-16T04:16:32.616Z,15.10
2018-08-16T04:19:00.493Z,15.00
2018-08-16T04:21:28.222Z,15.00
2018-08-16T04:23:55.922Z,15.00
2018-08-16T04:26:25.121Z,15.00
2018-08-16T04:28:52.897Z,15.10
2018-08-16T04:31:21.929Z,15.10
2018-08-16T04:33:49.649Z,14.90
2018-08-16T04:36:19.476Z,14.90
2018-08-16T04:38:48.983Z,15.00
2018-08-16T04:41:18.566Z,15.00
2018-08-16T04:43:46.298Z,14.90
2018-08-16T04:46:14.669Z,14.90
2018-08-16T04:48:42.408Z,14.90
2018-08-16T04:51:11.763Z,14.80
2018-08-16T04:53:40.493Z,14.70
2018-08-16T04:56:08.293Z,14.70
2018-08-16T04:58:37.790Z,14.70
2018-08-16T05:01:05.807Z,14.70
2018-08-16T05:03:34.161Z,14.80
2018-08-16T05:06:01.905Z,14.80
2018-08-16T05:08:31.061Z,14.80
2018-08-16T05:11:00.313Z,14.90
2018-08-16T05:13:29.272Z,15.10
2018-08-16T05:15:58.351Z,15.10
2018-08-16T05:18:27.632Z,15.10
2018-08-16T05:20:56.603Z,15.20
2018-08-16T05:23:25.530Z,15.10
2018-08-16T05:25:54.282Z,15.10
2018-08-16T05:28:23.535Z,15.20
2018-08-16T05:30:51.268Z,15.20
2018-08-16T05:33:19.394Z,15.40
2018-08-16T05:35:49.194Z,15.60
2018-08-16T05:38:17.575Z,15.60
2018-08-16T05:40:47.461Z,15.40
2018-08-16T05:43:16.415Z,15.70
2018-08-16T05:45:44.157Z,15.90
2018-08-16T05:48:11.880Z,16.00
2018-08-16T05:50:39.620Z,16.20
2018-08-16T05:53:07.334Z,16.20
2018-08-16T05:55:35.071Z,16.40
2018-08-16T05:58:02.793Z,16.60
2018-08-16T06:00:30.525Z,17.00
2018-08-16T06:02:58.258Z,17.30
2018-08-16T06:05:25.977Z,17.50
2018-08-16T06:07:53.722Z,17.80
2018-08-16T06:10:21.420Z,17.90
2018-08-16T06:12:49.178Z,18.00
2018-08-16T06:15:16.923Z,18.20
2018-08-16T06:17:44.833Z,18.20
2018-08-16T06:20:13.045Z,18.40
2018-08-16T06:22:41.193Z,18.70
2018-08-16T06:25:10.345Z,18.80
2018-08-16T06:27:38.069Z,18.90
2018-08-16T06:30:07.553Z,19.20
2018-08-16T06:32:35.265Z,19.30
2018-08-16T06:35:03.055Z,19.20
2018-08-16T06:37:30.754Z,19.60
2018-08-16T06:39:58.477Z,19.50
2018-08-16T06:42:26.178Z,19.50
2018-08-16T06:44:53.937Z,19.80
2018-08-16T06:47:21.657Z,19.90
2018-08-16T06:49:49.365Z,20.30
2018-08-16T06:52:17.173Z,20.40
2018-08-16T06:54:44.892Z,20.50
2018-08-16T06:57:12.681Z,20.20
2018-08-16T06:59:40.385Z,20.20
2018-08-16T07:02:08.105Z,20.10
2018-08-16T07:04:35.830Z,20.20
2018-08-16T07:07:03.581Z,20.90
2018-08-16T07:09:31.308Z,21.10
2018-08-16T07:11:59.132Z,21.20
2018-08-16T07:14:26.813Z,21.20
2018-08-16T07:16:54.509Z,20.80
2018-08-16T07:19:22.225Z,20.80
2018-08-16T07:21:49.933Z,21.20
2018-08-16T07:24:17.661Z,21.40
2018-08-16T07:26:45.384Z,21.60
2018-08-16T07:29:13.084Z,21.90
2018-08-16T07:31:40.843Z,21.40
2018-08-16T07:34:08.589Z,21.70
2018-08-16T07:36:36.322Z,21.90
2018-08-16T07:39:06.329Z,22.00
2018-08-16T07:41:34.073Z,21.90
2018-08-16T07:44:01.788Z,22.20
2018-08-16T07:46:29.513Z,22.70
2018-08-16T07:48:57.237Z,22.70
2018-08-16T07:51:25.070Z,22.60
2018-08-16T07:53:52.680Z,22.70
2018-08-16T07:56:20.434Z,23.30
2018-08-16T07:58:48.153Z,23.20
2018-08-16T08:01:15.929Z,23.50
2018-08-16T08:03:43.666Z,23.30
2018-08-16T08:06:11.419Z,23.50
2018-08-16T08:08:39.143Z,23.70
2018-08-16T08:11:06.905Z,24.00
2018-08-16T08:13:34.636Z,24.00
2018-08-16T08:16:02.374Z,23.50
2018-08-16T08:18:30.233Z,23.50
2018-08-16T08:20:57.961Z,23.80
2018-08-16T08:23:25.721Z,24.40
2018-08-16T08:25:53.469Z,23.90
2018-08-16T08:28:21.357Z,24.50
2018-08-16T08:30:49.110Z,23.80
2018-08-16T08:33:16.821Z,24.00
2018-08-16T08:35:48.985Z,25.10
2018-08-16T08:38:17.742Z,25.00
2018-08-16T08:40:45.501Z,25.20
2018-08-16T08:44:22.102Z,25.40
2018-08-16T08:46:50.867Z,25.60
2018-08-16T08:49:18.853Z,25.00
2018-08-16T08:51:46.897Z,26.00
2018-08-16T08:54:22.934Z,26.00
2018-08-16T08:56:56.349Z,26.10
2018-08-16T08:59:24.108Z,26.00
2018-08-16T09:01:51.789Z,25.80
2018-08-16T09:04:19.490Z,25.90
2018-08-16T09:06:47.249Z,25.20
2018-08-16T09:09:14.998Z,26.50
2018-08-16T09:11:48.378Z,26.10
2018-08-16T09:14:21.838Z,26.20
2018-08-16T09:16:49.545Z,26.50
2018-08-16T09:19:17.270Z,27.60
2018-08-16T09:21:45.014Z,27.60
2018-08-16T09:24:12.771Z,27.10
2018-08-16T09:26:44.661Z,26.10
2018-08-16T09:29:17.697Z,26.70
2018-08-16T09:31:51.145Z,26.20
2018-08-16T09:34:22.157Z,26.90
2018-08-16T09:36:50.081Z,27.00
2018-08-16T09:39:17.865Z,27.60
2018-08-16T09:41:45.624Z,28.10
2018-08-16T09:44:13.369Z,27.50
2018-08-16T09:46:48.069Z,28.10
2018-08-16T09:49:15.973Z,28.30
2018-08-16T09:51:45.262Z,28.10
2018-08-16T09:54:12.986Z,27.90
2018-08-16T09:56:41.069Z,27.50
2018-08-16T09:59:09.157Z,27.80
2018-08-16T10:01:37.103Z,27.70
2018-08-16T10:04:06.137Z,27.50
2018-08-16T10:06:34.077Z,27.90
2018-08-16T10:09:01.782Z,28.10
2018-08-16T10:11:29.534Z,28.40
2018-08-16T10:13:58.797Z,27.80
2018-08-16T10:16:26.845Z,27.90
2018-08-16T10:18:54.546Z,28.20
2018-08-16T10:21:22.266Z,28.10
2018-08-16T10:23:49.978Z,28.40
2018-08-16T10:26:17.677Z,29.20
2018-08-16T10:28:45.501Z,28.30
2018-08-16T10:31:13.442Z,27.80
2018-08-16T10:33:41.645Z,28.80
2018-08-16T10:36:09.594Z,29.70
2018-08-16T10:38:37.581Z,29.20
2018-08-16T10:41:06.133Z,29.40
2018-08-16T10:43:34.234Z,29.40
2018-08-16T10:46:02.182Z,29.70
2018-08-16T10:48:30.828Z,29.20
2018-08-16T10:50:58.617Z,29.80
2018-08-16T10:53:26.617Z,29.80
2018-08-16T10:55:54.320Z,29.70
2018-08-16T10:58:22.053Z,29.80
2018-08-16T11:00:49.781Z,30.10
2018-08-16T11:03:17.501Z,29.80
2018-08-16T11:05:45.226Z,29.60
2018-08-16T11:08:12.940Z,29.70
2018-08-16T11:10:40.737Z,29.70
2018-08-16T11:13:08.468Z,30.30
2018-08-16T11:15:36.198Z,29.00
2018-08-16T11:18:03.950Z,30.30
2018-08-16T11:20:31.673Z,30.30
2018-08-16T11:22:59.374Z,29.40
2018-08-16T11:25:27.073Z,29.60
2018-08-16T11:27:54.797Z,29.70
2018-08-16T11:30:22.511Z,29.80
2018-08-16T11:32:50.249Z,30.00
2018-08-16T11:35:17.969Z,31.10
2018-08-16T11:37:45.706Z,30.30
2018-08-16T11:40:13.426Z,30.10
2018-08-16T11:42:41.156Z,30.10
2018-08-16T11:45:09.117Z,30.60
2018-08-16T11:47:36.834Z,30.80
2018-08-16T11:50:04.645Z,30.80
2018-08-16T11:52:32.346Z,31.10
2018-08-16T11:55:00.075Z,31.30
2018-08-16T11:57:27.781Z,30.50
2018-08-16T11:59:55.525Z,30.40
2018-08-16T12:02:23.253Z,30.50
2018-08-16T12:04:50.954Z,31.00
2018-08-16T12:07:18.861Z,31.50
2018-08-16T12:09:46.606Z,31.40
2018-08-16T12:12:14.359Z,31.30
2018-08-16T12:14:42.136Z,31.60
2018-08-16T12:17:09.822Z,31.50
2018-08-16T12:19:37.528Z,32.10
2018-08-16T12:22:05.262Z,31.80
2018-08-16T12:24:32.958Z,32.50
2018-08-16T12:27:00.677Z,32.30
2018-08-16T12:29:28.393Z,32.00
2018-08-16T12:31:56.112Z,33.20
2018-08-16T12:34:23.850Z,34.10
2018-08-16T12:36:52.557Z,34.00
2018-08-16T12:39:20.303Z,33.50
2018-08-16T12:41:48.043Z,33.80
2018-08-16T12:44:15.830Z,34.90
2018-08-16T12:46:43.582Z,34.80
2018-08-16T12:49:11.290Z,35.20
2018-08-16T12:51:39.061Z,35.60
2018-08-16T12:54:06.810Z,35.70
2018-08-16T12:56:34.590Z,35.10
2018-08-16T12:59:02.348Z,33.80
2018-08-16T13:01:30.081Z,34.30
2018-08-16T13:03:57.825Z,34.90
2018-08-16T13:06:25.533Z,34.70
2018-08-16T13:08:53.306Z,34.50
2018-08-16T13:11:21.125Z,35.60
2018-08-16T13:13:48.982Z,35.40
2018-08-16T13:16:16.717Z,35.30
2018-08-16T13:18:44.833Z,35.40
2018-08-16T13:21:12.553Z,35.10
2018-08-16T13:23:40.346Z,35.20
2018-08-16T13:26:08.112Z,33.50
2018-08-16T13:28:35.808Z,34.90
2018-08-16T13:31:03.554Z,34.80
2018-08-16T13:33:31.290Z,33.90
2018-08-16T13:35:59.014Z,34.90
2018-08-16T13:38:26.738Z,34.50
2018-08-16T13:40:54.621Z,34.70
2018-08-16T13:43:22.325Z,34.30
2018-08-16T13:45:50.032Z,33.70
2018-08-16T13:48:17.792Z,35.00
2018-08-16T13:50:45.490Z,35.10
2018-08-16T13:53:13.273Z,34.80
2018-08-16T13:55:40.991Z,34.60
2018-08-16T13:58:08.774Z,34.90
2018-08-16T14:00:36.506Z,34.60
2018-08-16T14:03:04.369Z,33.70
2018-08-16T14:05:32.093Z,34.30
2018-08-16T14:07:59.794Z,33.80
2018-08-16T14:10:27.518Z,34.00
2018-08-16T14:12:55.369Z,34.00
2018-08-16T14:15:23.030Z,34.40
2018-08-16T14:17:50.737Z,34.10
2018-08-16T14:20:18.474Z,33.20
2018-08-16T14:22:46.187Z,33.40
2018-08-16T14:25:13.910Z,33.70
2018-08-16T14:27:41.670Z,33.20
2018-08-16T14:30:09.753Z,33.10
2018-08-16T14:32:37.733Z,33.10
2018-08-16T14:35:05.493Z,33.20
2018-08-16T14:37:33.209Z,33.30
2018-08-16T14:40:00.929Z,33.20
2018-08-16T14:42:28.743Z,33.70
2018-08-16T14:44:56.609Z,33.30
2018-08-16T14:47:24.817Z,33.30
2018-08-16T14:49:52.773Z,33.00
2018-08-16T14:52:20.489Z,33.00
2018-08-16T14:54:48.209Z,32.90
2018-08-16T14:57:15.933Z,33.00
2018-08-16T14:59:43.660Z,33.10
2018-08-16T15:02:11.392Z,33.50
2018-08-16T15:04:39.120Z,32.90
2018-08-16T15:07:06.853Z,32.70
2018-08-16T15:09:34.554Z,32.80
2018-08-16T15:12:02.317Z,33.40
2018-08-16T15:14:30.018Z,33.20
2018-08-16T15:16:57.785Z,33.30
2018-08-16T15:19:25.508Z,32.90
2018-08-16T15:21:53.245Z,32.50
2018-08-16T15:24:21.490Z,33.10
2018-08-16T15:26:49.952Z,32.90
2018-08-16T15:29:18.446Z,32.80
2018-08-16T15:31:46.153Z,32.70
2018-08-16T15:34:13.857Z,32.50
2018-08-16T15:36:41.640Z,32.80
2018-08-16T15:39:10.081Z,32.80
2018-08-16T15:41:38.069Z,32.20
2018-08-16T15:44:06.114Z,32.40
2018-08-16T15:46:33.809Z,32.40
2018-08-16T15:49:01.561Z,32.50
2018-08-16T15:51:29.400Z,32.30
2018-08-16T15:53:57.129Z,32.00
2018-08-16T15:56:24.838Z,31.80
2018-08-16T15:58:52.557Z,31.70
2018-08-16T16:01:20.309Z,31.80
2018-08-16T16:03:48.032Z,31.70
2018-08-16T16:06:15.873Z,31.60
2018-08-16T16:08:43.509Z,31.50
2018-08-16T16:11:11.237Z,31.40
2018-08-16T16:13:38.969Z,32.10
2018-08-16T16:16:06.832Z,31.90
2018-08-16T16:18:34.562Z,31.60
2018-08-16T16:21:02.293Z,31.30
2018-08-16T16:23:30.565Z,31.20
2018-08-16T16:25:58.278Z,31.10
2018-08-16T16:28:25.993Z,31.00
2018-08-16T16:30:53.763Z,30.90
2018-08-16T16:33:21.474Z,30.80
2018-08-16T16:35:49.449Z,30.70
2018-08-16T16:38:17.678Z,30.50
2018-08-16T16:40:45.393Z,30.50
2018-08-16T16:43:13.105Z,30.40
2018-08-16T16:45:40.926Z,30.40
2018-08-16T16:48:09.734Z,30.30
2018-08-16T16:50:37.457Z,30.20
2018-08-16T16:53:05.264Z,30.30
2018-08-16T16:55:32.951Z,30.10
2018-08-16T16:58:00.673Z,30.10
2018-08-16T17:00:28.545Z,30.10
2018-08-16T17:02:56.306Z,30.10
2018-08-16T17:05:24.038Z,30.00
2018-08-16T17:07:51.777Z,30.00
2018-08-16T17:10:19.564Z,30.00
2018-08-16T17:12:47.296Z,29.90
2018-08-16T17:15:15.030Z,29.80
2018-08-16T17:17:42.810Z,29.70
2018-08-16T17:20:11.365Z,29.60
2018-08-16T17:22:39.076Z,29.50
2018-08-16T17:25:07.045Z,29.40
2018-08-16T17:27:34.838Z,29.40
2018-08-16T17:30:02.825Z,29.20
2018-08-16T17:32:30.531Z,29.00
2018-08-16T17:34:58.284Z,28.80
2018-08-16T17:37:25.988Z,28.70
2018-08-16T17:39:53.730Z,28.70
2018-08-16T17:42:21.431Z,28.40
2018-08-16T17:44:49.157Z,28.10
2018-08-16T17:47:16.869Z,28.00
2018-08-16T17:49:44.566Z,28.00
2018-08-16T17:52:12.398Z,27.80
2018-08-16T17:54:40.057Z,27.70
2018-08-16T17:57:07.832Z,27.50
2018-08-16T17:59:35.560Z,27.30
2018-08-16T18:02:03.350Z,27.10
2018-08-16T18:04:31.057Z,26.80
2018-08-16T18:06:58.769Z,26.80
2018-08-16T18:09:26.506Z,26.60
2018-08-16T18:11:54.256Z,26.20
2018-08-16T18:14:21.989Z,26.30
2018-08-16T18:16:49.684Z,26.30
2018-08-16T18:19:17.418Z,26.10
2018-08-16T18:21:45.121Z,26.00
2018-08-16T18:24:12.849Z,25.90
2018-08-16T18:26:40.553Z,25.80
2018-08-16T18:29:08.253Z,25.70
2018-08-16T18:31:35.973Z,25.60
2018-08-16T18:34:03.734Z,25.60
2018-08-16T18:36:31.481Z,25.60
2018-08-16T18:38:59.176Z,25.60
2018-08-16T18:41:26.895Z,25.40
2018-08-16T18:43:54.609Z,25.20
2018-08-16T18:46:24.037Z,24.90
2018-08-16T18:48:56.446Z,24.80
2018-08-16T18:51:25.366Z,24.60
2018-08-16T18:53:54.421Z,24.50
2018-08-16T18:56:24.372Z,24.50
2018-08-16T18:58:53.780Z,24.40
2018-08-16T19:01:22.319Z,24.40
2018-08-16T19:03:50.387Z,24.10
2018-08-16T19:06:18.193Z,24.00
2018-08-16T19:08:47.046Z,24.00
2018-08-16T19:11:15.125Z,23.90
2018-08-16T19:13:44.240Z,23.90
2018-08-16T19:16:13.210Z,23.70
2018-08-16T19:18:42.111Z,23.70
2018-08-16T19:21:10.804Z,23.70
2018-08-16T19:23:38.561Z,23.60
2018-08-16T19:26:07.636Z,23.50
2018-08-16T19:28:35.424Z,23.40
2018-08-16T19:31:03.144Z,23.30
2018-08-16T19:33:31.252Z,23.20
2018-08-16T19:35:58.973Z,23.20
2018-08-16T19:38:26.681Z,23.10
2018-08-16T19:40:54.401Z,23.00
2018-08-16T19:43:22.117Z,23.10
2018-08-16T19:45:49.969Z,23.00
2018-08-16T19:48:17.744Z,22.90
2018-08-16T19:50:45.421Z,22.80
2018-08-16T19:53:13.121Z,22.70
2018-08-16T19:55:42.340Z,22.60
2018-08-16T19:58:10.890Z,22.50
2018-08-16T20:00:38.537Z,22.60
2018-08-16T20:03:07.228Z,22.70
2018-08-16T20:05:34.938Z,22.60
2018-08-16T20:08:02.728Z,22.60
2018-08-16T20:10:30.420Z,22.50
2018-08-16T20:12:58.173Z,22.50
2018-08-16T20:15:25.873Z,22.50
2018-08-16T20:17:55.132Z,22.40
2018-08-16T20:20:24.253Z,22.40
2018-08-16T20:22:51.986Z,22.40
2018-08-16T20:25:20.038Z,22.30
2018-08-16T20:27:47.933Z,22.30
2018-08-16T20:30:17.110Z,22.20
2018-08-16T20:32:44.821Z,22.20
2018-08-16T20:35:13.856Z,22.10
2018-08-16T20:37:41.581Z,22.10
2018-08-16T20:40:10.467Z,22.10
2018-08-16T20:42:38.317Z,22.00
2018-08-16T20:45:07.246Z,22.00
2018-08-16T20:47:35.044Z,21.90
2018-08-16T20:50:03.143Z,21.90
2018-08-16T20:52:30.969Z,21.80
2018-08-16T20:55:00.576Z,21.80
2018-08-16T20:57:28.384Z,21.80
2018-08-16T20:59:57.271Z,21.80
2018-08-16T21:02:26.265Z,21.70
2018-08-16T21:04:54.000Z,21.60
2018-08-16T21:07:21.725Z,21.60
2018-08-16T21:09:49.426Z,21.50
2018-08-16T21:12:17.201Z,21.40
2018-08-16T21:14:44.903Z,21.40
2018-08-16T21:17:12.625Z,21.50
2018-08-16T21:19:40.340Z,21.50
2018-08-16T21:22:08.098Z,21.30
2018-08-16T21:24:35.829Z,21.30
2018-08-16T21:27:03.589Z,21.20
2018-08-16T21:29:31.317Z,21.20
2018-08-16T21:31:59.057Z,21.20
2018-08-16T21:34:26.802Z,21.10
2018-08-16T21:36:54.498Z,21.00
2018-08-16T21:39:22.201Z,21.00
2018-08-16T21:41:49.933Z,21.00
2018-08-16T21:44:17.633Z,21.00
2018-08-16T21:46:45.388Z,20.90
2018-08-16T21:49:13.086Z,20.80
2018-08-16T21:51:40.809Z,20.80
2018-08-16T21:54:08.506Z,20.80
2018-08-16T21:56:36.221Z,20.70
2018-08-16T21:59:03.940Z,20.60
2018-08-16T22:01:31.641Z,20.60
2018-08-16T22:03:59.366Z,20.60
2018-08-16T22:06:32.670Z,20.70
2018-08-16T22:09:00.412Z,20.60
2018-08-16T22:11:28.122Z,20.60
2018-08-16T22:13:55.860Z,20.60
2018-08-16T22:16:23.569Z,20.60
2018-08-16T22:18:51.274Z,20.50
2018-08-16T22:21:18.993Z,20.50
2018-08-16T22:23:46.721Z,20.40
2018-08-16T22:26:14.646Z,20.40
2018-08-16T22:28:42.324Z,20.30
2018-08-16T22:31:10.069Z,20.20
2018-08-16T22:33:37.781Z,20.20
2018-08-16T22:36:05.513Z,20.20
2018-08-16T22:38:33.281Z,20.10
2018-08-16T22:41:00.985Z,20.00
2018-08-16T22:43:28.701Z,20.10
2018-08-16T22:45:56.394Z,20.20
2018-08-16T22:48:24.504Z,20.10
2018-08-16T22:50:52.233Z,20.10
2018-08-16T22:53:19.960Z,20.10
2018-08-16T22:55:47.669Z,20.00
2018-08-16T22:58:15.400Z,20.00
2018-08-16T23:00:43.119Z,20.00
2018-08-16T23:03:11.329Z,20.00
2018-08-16T23:05:39.041Z,20.00
2018-08-16T23:08:06.777Z,20.00
2018-08-16T23:10:34.581Z,19.90
2018-08-16T23:13:02.315Z,19.90
2018-08-16T23:15:30.021Z,19.90
2018-08-16T23:17:57.753Z,19.80
2018-08-16T23:20:25.529Z,19.70
2018-08-16T23:22:53.236Z,19.70
2018-08-16T23:25:20.948Z,19.60
2018-08-16T23:27:48.669Z,19.60
2018-08-16T23:30:16.677Z,19.50
2018-08-16T23:32:44.668Z,19.50
2018-08-16T23:35:12.597Z,19.40
2018-08-16T23:37:40.361Z,19.40
2018-08-16T23:40:10.172Z,19.40
2018-08-16T23:42:37.917Z,19.30
2018-08-16T23:45:06.021Z,19.30
2018-08-16T23:47:33.721Z,19.40
2018-08-16T23:50:01.560Z,19.40
2018-08-16T23:52:29.297Z,19.30
2018-08-16T23:54:57.021Z,19.30
2018-08-16T23:57:24.725Z,19.30
2018-08-16T23:59:52.423Z,19.30
